Time;durP1;ratioP1;P1;durP2;ratioP2;P2;SDS_P1;SDS_P2;PMS_P1;PMS_P2;Temp;Humidity;BMP_temperature;BMP_pressure;BME280_temperature;BME280_humidity;BME280_pressure;Samples;Min_cycle;Max_cycle;Signal;HPM_P1;HPM_P2
2021/09/14 00:00:22;;;;;;;18.02;13.52;;;14.70;70.90;;;;;;5013525;28;20392;-75
2021/09/14 00:02:49;;;;;;;16.42;13.35;;;14.70;71.10;;;;;;5013112;28;20389;-78
2021/09/14 00:05:15;;;;;;;19.23;14.17;;;14.70;71.40;;;;;;5012822;28;20397;-77
2021/09/14 00:07:40;;;;;;;16.35;13.15;;;14.70;71.70;;;;;;5012644;28;20427;-77
2021/09/14 00:10:07;;;;;;;17.40;14.30;;;14.70;72.40;;;;;;5017794;28;20841;-77
2021/09/14 00:12:33;;;;;;;18.20;14.20;;;14.70;72.70;;;;;;5015255;28;20472;-77
2021/09/14 00:14:59;;;;;;;19.23;13.98;;;14.70;73.30;;;;;;5015670;28;20421;-77
2021/09/14 00:17:24;;;;;;;17.83;14.05;;;14.60;73.20;;;;;;5008278;28;20387;-77
2021/09/14 00:19:50;;;;;;;19.57;13.90;;;14.60;73.90;;;;;;4994929;28;20433;-76
2021/09/14 00:22:15;;;;;;;21.90;14.70;;;14.60;74.10;;;;;;4995191;28;20394;-77
2021/09/14 00:24:41;;;;;;;18.50;14.73;;;14.60;74.60;;;;;;4993146;28;20390;-76
2021/09/14 00:27:06;;;;;;;18.83;14.10;;;14.60;75.20;;;;;;4994018;28;20401;-77
2021/09/14 00:29:32;;;;;;;20.13;14.57;;;14.50;75.70;;;;;;4993829;28;20446;-77
2021/09/14 00:31:58;;;;;;;18.93;15.00;;;14.60;75.50;;;;;;4993305;28;20426;-76
2021/09/14 00:34:23;;;;;;;17.83;14.23;;;14.50;75.20;;;;;;4992258;28;20379;-76
2021/09/14 00:36:49;;;;;;;20.47;14.30;;;14.50;75.20;;;;;;4990227;28;20486;-76
2021/09/14 00:39:14;;;;;;;20.17;15.88;;;14.50;76.00;;;;;;4992120;28;20389;-76
2021/09/14 00:41:40;;;;;;;19.15;15.38;;;14.50;76.60;;;;;;4992180;28;20423;-76
2021/09/14 00:44:05;;;;;;;18.50;14.53;;;14.40;77.20;;;;;;5008148;28;20380;-77
2021/09/14 00:46:31;;;;;;;20.47;15.70;;;14.40;77.50;;;;;;5012696;28;20435;-76
2021/09/14 00:48:56;;;;;;;19.70;15.53;;;14.40;77.90;;;;;;5011924;28;20408;-76
2021/09/14 00:51:22;;;;;;;16.27;13.97;;;14.70;75.50;;;;;;5013361;28;20651;-76
2021/09/14 00:53:48;;;;;;;18.55;14.10;;;14.80;71.80;;;;;;5011702;28;20387;-76
2021/09/14 00:56:18;;;;;;;15.63;13.77;;;14.90;69.80;;;;;;5011846;28;20443;-76
2021/09/14 00:58:44;;;;;;;16.30;13.98;;;15.10;68.10;;;;;;5011783;28;20400;-76
2021/09/14 01:01:10;;;;;;;19.83;13.80;;;15.20;66.00;;;;;;5012851;28;20450;-76
2021/09/14 01:03:36;;;;;;;19.40;14.30;;;15.20;65.20;;;;;;5012482;28;20444;-76
2021/09/14 01:06:03;;;;;;;17.83;13.40;;;15.30;64.70;;;;;;5011768;28;20724;-76
2021/09/14 01:08:31;;;;;;;18.00;14.30;;;15.10;65.80;;;;;;5011544;28;20926;-76
2021/09/14 01:10:56;;;;;;;19.20;14.57;;;15.00;67.00;;;;;;5011336;28;20424;-76
2021/09/14 01:13:22;;;;;;;20.63;14.33;;;14.80;69.50;;;;;;5011591;28;20408;-75
2021/09/14 01:15:48;;;;;;;20.73;15.65;;;14.60;73.50;;;;;;5011306;28;20396;-76
2021/09/14 01:18:13;;;;;;;21.67;16.42;;;14.40;77.10;;;;;;4997418;28;20390;-76
2021/09/14 01:20:39;;;;;;;21.85;15.98;;;14.20;79.90;;;;;;4991359;28;20400;-76
2021/09/14 01:23:04;;;;;;;19.15;15.13;;;14.30;80.80;;;;;;4991689;28;20387;-76
2021/09/14 01:25:30;;;;;;;19.08;15.65;;;14.20;81.40;;;;;;4991606;28;20477;-75
2021/09/14 01:28:04;;;;;;;22.17;15.77;;;14.30;82.20;;;;;;4989961;28;20394;-75
2021/09/14 01:30:31;;;;;;;17.40;15.35;;;14.20;81.20;;;;;;4991149;28;20415;-75
2021/09/14 01:32:57;;;;;;;18.27;15.00;;;14.10;83.00;;;;;;4990079;28;20732;-77
2021/09/14 01:35:31;;;;;;;21.27;15.93;;;14.20;83.40;;;;;;4991343;28;20390;-76
2021/09/14 01:37:57;;;;;;;20.58;15.27;;;14.10;82.70;;;;;;4991042;28;20382;-77
2021/09/14 01:40:24;;;;;;;21.60;15.30;;;14.10;83.90;;;;;;4991087;28;20398;-77
2021/09/14 01:42:49;;;;;;;19.85;16.38;;;14.00;86.00;;;;;;4996881;28;20798;-76
2021/09/14 01:45:15;;;;;;;22.08;16.13;;;14.10;84.60;;;;;;5011070;28;20381;-77
2021/09/14 01:47:42;;;;;;;19.75;15.77;;;14.00;83.70;;;;;;5010943;28;20395;-76
2021/09/14 01:50:09;;;;;;;21.67;17.27;;;13.90;85.40;;;;;;5014729;28;20890;-74
2021/09/14 01:52:35;;;;;;;23.03;17.33;;;13.90;87.10;;;;;;5013513;28;20392;-74
2021/09/14 01:55:06;;;;;;;19.63;16.90;;;13.80;87.70;;;;;;5014575;28;20451;-76
2021/09/14 01:57:36;;;;;;;22.27;16.63;;;13.80;89.10;;;;;;5014608;28;20376;-76
2021/09/14 02:00:12;;;;;;;23.92;16.88;;;13.60;90.40;;;;;;5014789;28;20882;-75
2021/09/14 02:02:54;;;;;;;21.50;17.33;;;13.60;91.70;;;;;;5014920;28;20392;-75
2021/09/14 02:24:20;;;;;;;21.60;17.27;;;13.40;99.00;;;;;;4994691;28;20393;-75
2021/09/14 02:59:10;;;;;;;22.98;18.17;;;13.30;99.90;;;;;;5013734;28;20389;-76
2021/09/14 03:01:35;;;;;;;21.00;16.90;;;13.30;99.90;;;;;;5014679;28;20870;-77
2021/09/14 03:04:04;;;;;;;24.70;17.10;;;13.20;99.90;;;;;;5015219;28;20817;-77
2021/09/14 03:06:30;;;;;;;25.38;17.50;;;13.20;99.90;;;;;;5015060;28;20415;-76
2021/09/14 03:08:55;;;;;;;22.13;17.65;;;13.10;99.90;;;;;;5013649;28;20377;-77
2021/09/14 03:11:21;;;;;;;26.37;18.23;;;13.10;99.90;;;;;;5014417;28;20404;-77
2021/09/14 03:13:47;;;;;;;27.27;18.80;;;13.00;99.90;;;;;;5014581;28;20401;-77
2021/09/14 03:16:13;;;;;;;26.33;18.27;;;13.10;99.90;;;;;;5015346;28;20385;-77
2021/09/14 03:18:40;;;;;;;22.02;17.80;;;13.10;99.90;;;;;;5005083;28;20397;-77
2021/09/14 03:21:08;;;;;;;25.33;18.77;;;13.00;99.90;;;;;;5006048;28;20393;-77
2021/09/14 03:23:34;;;;;;;23.98;18.30;;;13.00;99.90;;;;;;5002287;28;20394;-78
2021/09/14 03:26:00;;;;;;;24.73;18.77;;;13.00;99.90;;;;;;4995052;28;20382;-77
2021/09/14 03:28:26;;;;;;;28.60;18.20;;;13.10;99.90;;;;;;4994904;28;20405;-77
2021/09/14 03:30:52;;;;;;;22.25;17.50;;;13.20;99.90;;;;;;4995590;28;20421;-77
2021/09/14 03:33:18;;;;;;;24.67;18.10;;;13.10;99.90;;;;;;4995832;28;20891;-78
2021/09/14 03:35:43;;;;;;;22.10;18.27;;;13.20;99.90;;;;;;4995197;28;20426;-76
2021/09/14 03:38:09;;;;;;;24.52;17.77;;;13.00;99.90;;;;;;4993792;28;20398;-78
2021/09/14 03:40:35;;;;;;;25.63;18.50;;;13.00;99.90;;;;;;4976443;28;20394;-77
2021/09/14 03:43:01;;;;;;;24.93;18.40;;;12.90;99.90;;;;;;5000545;28;20439;-77
2021/09/14 03:45:27;;;;;;;25.00;17.90;;;12.90;99.90;;;;;;5013341;28;20393;-77
2021/09/14 03:47:53;;;;;;;25.83;18.98;;;13.00;99.90;;;;;;5013425;28;20893;-76
2021/09/14 03:50:19;;;;;;;24.60;19.33;;;13.00;99.90;;;;;;5017739;28;20400;-75
2021/09/14 03:52:44;;;;;;;23.70;19.02;;;12.90;99.90;;;;;;5017322;28;20393;-76
2021/09/14 03:55:10;;;;;;;24.40;18.53;;;12.90;99.90;;;;;;5016555;28;20397;-76
2021/09/14 03:57:36;;;;;;;24.10;18.60;;;12.90;99.90;;;;;;5013276;28;20819;-76
2021/09/14 04:00:02;;;;;;;24.87;18.20;;;12.80;99.90;;;;;;5013483;28;20400;-76
2021/09/14 04:02:41;;;;;;;26.92;19.23;;;12.80;99.90;;;;;;5013345;28;20475;-76
2021/09/14 04:10:06;;;;;;;27.85;20.00;;;12.80;99.90;;;;;;5011744;28;20417;-77
2021/09/14 04:12:32;;;;;;;26.83;19.90;;;12.80;99.90;;;;;;5012165;28;20440;-76
2021/09/14 04:14:59;;;;;;;28.17;19.80;;;12.80;99.90;;;;;;5012204;28;20392;-76
2021/09/14 04:17:24;;;;;;;25.98;19.50;;;12.70;99.90;;;;;;5005034;28;20749;-75
2021/09/14 04:19:50;;;;;;;24.20;19.40;;;12.70;99.90;;;;;;4991634;28;20402;-76
2021/09/14 04:22:16;;;;;;;22.70;18.37;;;12.70;99.90;;;;;;4993667;28;20387;-76
2021/09/14 04:24:41;;;;;;;28.07;19.77;;;12.70;99.90;;;;;;4999205;28;20716;-76
2021/09/14 04:27:09;;;;;;;24.33;19.43;;;12.70;99.90;;;;;;5002815;28;20452;-76
2021/09/14 04:29:34;;;;;;;27.63;19.17;;;12.70;99.90;;;;;;4996001;28;20776;-76
2021/09/14 04:32:00;;;;;;;26.77;20.23;;;12.70;99.90;;;;;;4992261;28;20386;-76
2021/09/14 04:34:25;;;;;;;26.92;19.42;;;12.90;99.90;;;;;;4992813;28;20398;-75
2021/09/14 04:36:52;;;;;;;24.97;20.40;;;12.80;99.90;;;;;;4992640;28;20387;-75
2021/09/14 04:39:18;;;;;;;25.13;19.67;;;12.80;99.90;;;;;;4995501;28;20382;-75
2021/09/14 04:41:44;;;;;;;24.65;19.10;;;12.80;99.90;;;;;;5000217;28;20386;-76
2021/09/14 04:44:09;;;;;;;26.07;19.07;;;13.10;99.90;;;;;;5017072;28;20443;-76
2021/09/14 04:46:35;;;;;;;28.58;19.25;;;13.10;99.90;;;;;;5018471;28;20396;-76
2021/09/14 04:49:01;;;;;;;30.42;20.40;;;12.90;99.90;;;;;;5015453;28;20401;-76
2021/09/14 04:51:27;;;;;;;34.23;20.70;;;13.00;99.90;;;;;;5012727;28;20409;-76
2021/09/14 04:53:52;;;;;;;27.10;18.53;;;13.20;99.90;;;;;;5012603;28;20396;-76
2021/09/14 04:56:18;;;;;;;26.77;19.00;;;13.30;99.70;;;;;;5012147;28;20917;-76
2021/09/14 04:58:46;;;;;;;23.23;17.97;;;13.30;96.50;;;;;;5011656;28;20416;-76
2021/09/14 05:01:14;;;;;;;23.27;17.70;;;13.30;95.10;;;;;;5011764;28;20882;-75
2021/09/14 05:03:40;;;;;;;27.05;19.10;;;13.10;96.10;;;;;;5011432;28;20401;-76
2021/09/14 05:06:05;;;;;;;26.00;19.10;;;13.00;98.40;;;;;;5011514;28;20437;-76
2021/09/14 05:08:31;;;;;;;24.63;19.50;;;12.90;99.90;;;;;;5011261;28;20531;-76
2021/09/14 05:10:58;;;;;;;26.48;20.17;;;12.90;99.90;;;;;;5011233;28;20474;-75
2021/09/14 05:13:24;;;;;;;31.85;20.83;;;12.90;99.90;;;;;;5012483;28;20385;-76
2021/09/14 05:15:49;;;;;;;35.35;22.67;;;12.80;99.90;;;;;;5011199;28;20869;-76
2021/09/14 05:18:16;;;;;;;31.90;20.27;;;12.80;99.90;;;;;;5011015;28;20439;-76
2021/09/14 05:20:42;;;;;;;30.02;18.15;;;12.80;99.90;;;;;;4998664;28;20394;-76
2021/09/14 05:23:12;;;;;;;31.60;20.37;;;12.80;99.90;;;;;;4991549;28;20390;-76
2021/09/14 05:25:39;;;;;;;28.65;20.00;;;12.90;99.90;;;;;;4992769;28;20394;-77
2021/09/14 05:28:05;;;;;;;27.38;18.70;;;13.10;99.90;;;;;;4991448;28;20414;-76
2021/09/14 05:30:30;;;;;;;27.20;18.50;;;13.10;99.90;;;;;;4994059;28;20418;-75
2021/09/14 05:32:56;;;;;;;27.90;19.90;;;13.10;99.90;;;;;;4994154;28;20389;-76
2021/09/14 05:35:24;;;;;;;26.08;18.90;;;13.20;99.90;;;;;;4994504;28;20409;-75
2021/09/14 05:37:50;;;;;;;24.88;19.05;;;13.30;97.80;;;;;;4991954;28;20409;-75
2021/09/14 05:40:15;;;;;;;25.83;19.17;;;13.40;97.50;;;;;;4993571;28;20386;-74
2021/09/14 05:42:41;;;;;;;26.27;20.30;;;13.40;97.20;;;;;;4995671;28;20530;-76
2021/09/14 05:45:07;;;;;;;24.90;19.02;;;13.40;97.50;;;;;;5010991;28;20389;-75
2021/09/14 05:47:32;;;;;;;24.75;18.25;;;13.70;94.50;;;;;;5010278;28;20917;-75
2021/09/14 05:50:00;;;;;;;26.93;18.27;;;13.90;87.90;;;;;;5008770;28;20409;-75
2021/09/14 05:52:26;;;;;;;23.10;17.90;;;13.90;87.90;;;;;;5009105;28;20487;-75
2021/09/14 05:54:52;;;;;;;33.27;24.23;;;14.00;87.80;;;;;;5010674;28;20385;-75
2021/09/14 05:57:17;;;;;;;27.83;20.10;;;14.00;88.20;;;;;;5010407;28;20443;-76
2021/09/14 05:59:43;;;;;;;26.70;19.07;;;14.00;89.30;;;;;;5010406;28;20752;-75
2021/09/14 06:02:08;;;;;;;22.23;17.80;;;14.10;89.50;;;;;;5009160;28;20886;-75
2021/09/14 06:04:34;;;;;;;25.52;19.63;;;14.20;88.80;;;;;;5010510;28;20404;-75
2021/09/14 06:06:59;;;;;;;21.90;17.00;;;14.30;87.80;;;;;;5009990;28;20455;-76
2021/09/14 06:09:25;;;;;;;23.53;18.83;;;14.40;87.70;;;;;;5010026;28;20393;-75
2021/09/14 06:11:50;;;;;;;22.40;17.37;;;14.70;83.20;;;;;;5011511;28;20392;-77
2021/09/14 06:14:16;;;;;;;24.48;17.35;;;14.90;76.70;;;;;;5009682;28;20495;-76
2021/09/14 06:16:41;;;;;;;22.98;17.70;;;15.10;73.90;;;;;;5012018;28;20459;-75
2021/09/14 06:19:07;;;;;;;23.60;18.93;;;15.10;73.00;;;;;;5010902;28;20734;-77
2021/09/14 06:21:37;;;;;;;21.30;17.40;;;15.10;74.00;;;;;;4991632;28;20474;-75
2021/09/14 06:24:04;;;;;;;23.13;16.48;;;15.30;72.10;;;;;;4990949;28;20383;-76
2021/09/14 06:26:29;;;;;;;27.10;17.98;;;15.50;68.20;;;;;;4996327;28;20386;-76
2021/09/14 06:28:55;;;;;;;22.50;17.07;;;15.70;66.50;;;;;;4992904;28;20402;-75
2021/09/14 06:31:21;;;;;;;26.00;17.90;;;15.80;65.80;;;;;;4991581;28;20934;-76
2021/09/14 06:33:46;;;;;;;26.50;18.37;;;15.80;65.00;;;;;;4992332;28;20914;-76
2021/09/14 06:36:12;;;;;;;23.77;17.60;;;15.80;66.30;;;;;;4994773;28;20398;-75
2021/09/14 06:38:37;;;;;;;23.05;17.60;;;15.80;66.10;;;;;;4994374;28;20394;-76
2021/09/14 06:41:04;;;;;;;28.52;18.55;;;16.00;64.90;;;;;;4994591;28;20872;-75
2021/09/14 06:43:29;;;;;;;24.25;17.83;;;16.10;64.30;;;;;;4994586;28;20892;-74
2021/09/14 06:45:55;;;;;;;25.23;17.27;;;16.20;64.20;;;;;;4995571;28;20395;-79
2021/09/14 06:48:20;;;;;;;23.70;17.02;;;16.30;63.10;;;;;;4996622;28;20398;-76
2021/09/14 06:50:46;;;;;;;23.30;16.10;;;16.50;60.90;;;;;;4995345;28;20449;-76
2021/09/14 06:53:12;;;;;;;23.63;16.80;;;16.70;58.50;;;;;;4996270;28;20418;-76
2021/09/14 06:55:38;;;;;;;24.67;16.30;;;16.70;58.40;;;;;;5005338;28;20530;-77
2021/09/14 06:58:03;;;;;;;24.47;16.57;;;16.90;55.40;;;;;;5000098;28;20460;-76
2021/09/14 07:00:29;;;;;;;23.30;15.63;;;17.00;54.60;;;;;;4992392;28;20856;-76
2021/09/14 07:02:54;;;;;;;21.27;15.10;;;17.10;54.30;;;;;;4976567;28;20396;-74
2021/09/14 07:05:20;;;;;;;22.88;15.80;;;17.20;53.10;;;;;;4994542;28;20409;-76
2021/09/14 07:07:46;;;;;;;24.40;16.50;;;17.30;51.90;;;;;;5007951;28;20388;-76
2021/09/14 07:10:12;;;;;;;18.95;15.15;;;17.50;51.60;;;;;;5015325;28;20462;-76
2021/09/14 07:12:37;;;;;;;20.53;14.77;;;17.60;50.20;;;;;;4999190;28;20870;-77
2021/09/14 07:15:03;;;;;;;17.80;14.23;;;17.70;48.30;;;;;;5006791;28;20400;-76
2021/09/14 07:17:29;;;;;;;18.20;13.70;;;17.80;47.10;;;;;;5002777;28;20421;-77
2021/09/14 07:19:55;;;;;;;17.90;13.10;;;18.00;44.70;;;;;;4998598;28;20395;-75
2021/09/14 07:22:21;;;;;;;19.83;14.35;;;18.10;43.60;;;;;;4995595;28;20481;-76
2021/09/14 07:24:46;;;;;;;15.60;12.93;;;18.30;42.90;;;;;;4994094;28;20433;-76
2021/09/14 07:27:12;;;;;;;16.97;12.50;;;18.30;42.50;;;;;;4994217;28;20394;-76
2021/09/14 07:29:38;;;;;;;15.68;12.15;;;18.40;42.70;;;;;;4994254;28;20446;-75
2021/09/14 07:32:04;;;;;;;16.77;12.20;;;18.50;41.70;;;;;;4997732;28;20394;-75
2021/09/14 07:34:30;;;;;;;22.75;13.10;;;18.50;40.70;;;;;;5001059;28;20403;-75
2021/09/14 07:36:55;;;;;;;13.68;11.30;;;18.70;40.70;;;;;;5013501;28;20395;-76
2021/09/14 07:39:21;;;;;;;14.00;11.07;;;18.70;40.50;;;;;;4996001;28;20434;-75
2021/09/14 07:41:47;;;;;;;16.00;12.30;;;19.00;39.30;;;;;;4991909;28;20747;-76
2021/09/14 07:44:12;;;;;;;13.60;11.27;;;19.00;38.80;;;;;;4994294;28;20399;-75
2021/09/14 07:46:38;;;;;;;17.10;11.57;;;18.90;38.90;;;;;;4992800;28;20476;-75
2021/09/14 07:49:03;;;;;;;16.73;12.10;;;18.80;39.00;;;;;;4992322;28;20776;-75
2021/09/14 07:51:29;;;;;;;15.57;11.10;;;18.70;39.40;;;;;;4994242;28;20403;-77
2021/09/14 07:53:56;;;;;;;15.47;12.13;;;18.70;40.00;;;;;;4981161;28;20905;-77
2021/09/14 07:56:21;;;;;;;15.70;11.35;;;18.80;39.90;;;;;;4974363;28;20990;-77
2021/09/14 07:58:47;;;;;;;14.73;11.10;;;18.80;40.10;;;;;;4985349;28;20410;-77
2021/09/14 08:01:12;;;;;;;15.10;11.40;;;18.80;40.10;;;;;;4994022;28;20386;-76
2021/09/14 08:03:38;;;;;;;15.87;11.87;;;18.80;39.80;;;;;;4993094;28;20482;-77
2021/09/14 08:06:03;;;;;;;14.23;10.73;;;18.80;40.00;;;;;;5001020;28;20388;-77
2021/09/14 08:08:29;;;;;;;13.07;10.70;;;19.00;39.40;;;;;;4996554;28;20441;-76
2021/09/14 08:10:54;;;;;;;15.88;11.18;;;19.20;38.60;;;;;;4993565;28;20425;-76
2021/09/14 08:13:20;;;;;;;15.93;10.17;;;19.10;38.40;;;;;;4980984;28;20448;-76
2021/09/14 08:15:46;;;;;;;14.33;11.87;;;19.40;37.40;;;;;;4973673;28;20407;-77
2021/09/14 08:18:11;;;;;;;15.07;11.13;;;19.30;37.30;;;;;;4987664;28;20402;-77
2021/09/14 08:20:37;;;;;;;17.25;13.00;;;19.20;37.40;;;;;;4995140;28;20397;-75
2021/09/14 08:23:02;;;;;;;17.23;12.67;;;19.10;37.60;;;;;;4991621;28;20424;-76
2021/09/14 08:25:28;;;;;;;16.60;12.25;;;19.20;37.70;;;;;;5000194;28;20460;-75
2021/09/14 08:27:54;;;;;;;16.33;12.27;;;19.30;38.00;;;;;;4991926;28;20410;-75
2021/09/14 08:30:20;;;;;;;16.10;12.32;;;19.20;38.00;;;;;;4992326;28;20409;-75
2021/09/14 08:32:45;;;;;;;20.30;12.98;;;19.30;37.90;;;;;;4990756;28;20407;-74
2021/09/14 08:35:11;;;;;;;16.20;12.13;;;19.40;37.50;;;;;;4992539;28;20391;-75
2021/09/14 08:37:37;;;;;;;17.47;12.30;;;19.50;36.80;;;;;;4992291;28;20876;-76
2021/09/14 08:40:03;;;;;;;18.10;11.90;;;19.60;36.50;;;;;;5005149;28;20906;-76
2021/09/14 08:42:35;;;;;;;17.15;11.60;;;19.90;35.90;;;;;;4995934;28;22472;-77
2021/09/14 08:45:03;;;;;;;16.25;12.50;;;20.00;35.70;;;;;;5013042;28;20392;-76
2021/09/14 08:47:30;;;;;;;19.27;12.60;;;20.00;34.80;;;;;;5006125;28;20402;-76
2021/09/14 08:49:55;;;;;;;19.40;12.68;;;20.00;35.20;;;;;;4992527;28;20410;-75
2021/09/14 08:52:21;;;;;;;15.75;11.77;;;20.10;35.40;;;;;;4991000;28;21030;-75
2021/09/14 08:54:46;;;;;;;19.00;10.87;;;20.20;35.70;;;;;;4992110;28;20433;-75
2021/09/14 08:57:13;;;;;;;13.77;10.37;;;20.30;35.00;;;;;;4991177;28;20824;-75
2021/09/14 08:59:47;;;;;;;14.65;9.20;;;20.40;34.40;;;;;;4991884;28;20751;-76
2021/09/14 09:02:16;;;;;;;15.93;8.93;;;20.40;33.70;;;;;;4993743;28;20390;-75
2021/09/14 09:05:04;;;;;;;13.27;9.30;;;20.70;34.10;;;;;;4993394;28;20946;-76
2021/09/14 09:07:35;;;;;;;14.95;9.25;;;20.90;33.50;;;;;;5009924;28;20413;-75
2021/09/14 09:10:15;;;;;;;10.60;8.47;;;20.90;32.50;;;;;;4996933;28;20427;-73
2021/09/14 09:12:43;;;;;;;11.00;8.10;;;21.10;32.00;;;;;;4986963;28;20392;-76
2021/09/14 09:15:19;;;;;;;13.77;8.35;;;21.20;31.70;;;;;;4995547;28;20405;-77
2021/09/14 09:17:45;;;;;;;11.02;7.60;;;21.50;30.90;;;;;;4992885;28;20425;-77
2021/09/14 09:20:11;;;;;;;12.13;8.90;;;21.40;31.10;;;;;;4997127;28;20896;-77
2021/09/14 09:22:38;;;;;;;16.88;7.65;;;21.30;31.90;;;;;;5006513;28;20469;-77
2021/09/14 09:25:04;;;;;;;13.70;8.40;;;21.30;31.90;;;;;;5000591;28;20787;-77
2021/09/14 09:27:31;;;;;;;12.05;7.90;;;21.40;32.20;;;;;;4999966;28;20402;-77
2021/09/14 09:30:05;;;;;;;13.88;8.18;;;21.60;31.10;;;;;;4995923;28;20466;-78
2021/09/14 09:32:48;;;;;;;12.70;7.72;;;21.50;31.70;;;;;;4999912;28;20448;-77
2021/09/14 09:35:25;;;;;;;9.60;7.93;;;21.70;31.00;;;;;;4995517;28;20896;-77
2021/09/14 09:37:51;;;;;;;10.90;8.10;;;21.80;30.40;;;;;;5003315;28;20410;-76
2021/09/14 09:40:39;;;;;;;14.70;8.20;;;22.00;29.90;;;;;;5008554;28;20394;-77
2021/09/14 09:43:09;;;;;;;12.67;7.40;;;22.10;30.60;;;;;;5002783;28;20822;-77
2021/09/14 09:45:43;;;;;;;11.18;7.20;;;22.30;30.60;;;;;;5010853;28;20431;-79
2021/09/14 09:48:10;;;;;;;8.60;7.20;;;22.50;29.10;;;;;;5001080;28;20808;-78
2021/09/14 09:50:40;;;;;;;12.18;7.90;;;22.50;29.00;;;;;;5002700;28;20457;-77
2021/09/14 09:53:07;;;;;;;15.98;7.28;;;22.70;29.60;;;;;;4992368;28;20908;-78
2021/09/14 09:55:34;;;;;;;9.38;7.30;;;22.90;28.50;;;;;;4991763;28;20921;-79
2021/09/14 09:58:04;;;;;;;9.40;7.97;;;22.90;27.60;;;;;;5000308;28;20749;-78
2021/09/14 10:00:34;;;;;;;10.60;7.30;;;23.00;27.40;;;;;;4992261;28;20414;-78
2021/09/14 10:03:04;;;;;;;8.20;6.70;;;23.10;27.50;;;;;;4996336;28;20474;-77
2021/09/14 10:05:34;;;;;;;10.77;7.20;;;23.30;27.20;;;;;;5005328;28;20397;-77
2021/09/14 10:08:20;;;;;;;9.40;7.00;;;23.50;27.00;;;;;;5013923;28;20388;-77
2021/09/14 10:10:56;;;;;;;10.13;7.10;;;23.70;25.70;;;;;;5018674;28;20792;-77
2021/09/14 10:13:38;;;;;;;8.20;6.68;;;23.80;25.20;;;;;;5002787;28;20457;-77
2021/09/14 10:16:04;;;;;;;8.68;6.80;;;23.80;24.80;;;;;;5004226;28;20474;-77
2021/09/14 10:18:33;;;;;;;8.45;6.45;;;23.90;25.20;;;;;;4998073;28;20445;-76
2021/09/14 10:21:00;;;;;;;9.73;6.55;;;24.00;25.20;;;;;;4995696;28;20386;-77
2021/09/14 10:23:34;;;;;;;9.00;6.80;;;24.00;24.30;;;;;;4996789;28;20448;-77
2021/09/14 10:26:05;;;;;;;10.90;8.38;;;24.00;24.30;;;;;;4994108;28;20441;-78
2021/09/14 10:28:47;;;;;;;11.73;7.07;;;24.00;24.70;;;;;;4995909;28;20401;-78
2021/09/14 10:31:28;;;;;;;10.20;6.90;;;24.00;23.60;;;;;;4996931;28;20414;-78
2021/09/14 10:34:04;;;;;;;9.55;6.50;;;23.70;25.40;;;;;;5002750;28;20420;-76
2021/09/14 10:36:31;;;;;;;9.13;6.53;;;23.70;25.50;;;;;;5010588;28;20398;-76
2021/09/14 10:38:58;;;;;;;7.25;6.15;;;23.70;25.30;;;;;;4999094;28;20394;-76
2021/09/14 10:41:35;;;;;;;7.80;6.20;;;23.60;25.90;;;;;;4997980;28;20454;-77
2021/09/14 10:44:01;;;;;;;7.32;6.60;;;23.70;25.70;;;;;;5011631;28;20408;-77
2021/09/14 10:46:30;;;;;;;7.35;5.60;;;23.70;24.90;;;;;;5014132;28;20396;-77
2021/09/14 10:48:56;;;;;;;8.45;6.20;;;23.70;25.40;;;;;;5013692;28;20763;-77
2021/09/14 10:51:22;;;;;;;8.30;6.47;;;23.80;24.50;;;;;;5014895;28;20435;-77
2021/09/14 10:53:55;;;;;;;10.95;6.40;;;24.00;24.30;;;;;;5013928;28;20874;-77
2021/09/14 10:56:21;;;;;;;6.80;6.10;;;24.00;23.80;;;;;;5013229;28;20401;-77
2021/09/14 10:58:46;;;;;;;7.40;6.60;;;23.90;24.50;;;;;;5013877;28;20384;-77
2021/09/14 11:01:21;;;;;;;7.68;6.88;;;23.90;24.90;;;;;;4994999;28;20419;-77
2021/09/14 11:04:01;;;;;;;8.07;6.03;;;23.90;24.80;;;;;;4994112;28;20413;-77
2021/09/14 11:06:27;;;;;;;7.10;6.00;;;23.90;24.40;;;;;;5004493;28;20428;-77
2021/09/14 11:08:57;;;;;;;7.47;6.78;;;24.10;25.00;;;;;;4996447;28;20489;-78
2021/09/14 11:11:22;;;;;;;7.75;6.65;;;24.20;24.70;;;;;;4995454;28;20464;-75
2021/09/14 11:13:48;;;;;;;6.70;6.10;;;24.20;24.50;;;;;;4995839;28;20394;-78
2021/09/14 11:16:16;;;;;;;9.88;6.93;;;24.30;24.40;;;;;;4995455;28;20776;-80
2021/09/14 11:18:42;;;;;;;20.17;6.97;;;24.50;24.60;;;;;;4993624;28;20405;-78
2021/09/14 11:21:16;;;;;;;7.88;6.18;;;24.40;24.40;;;;;;4998310;28;21009;-77
2021/09/14 11:23:45;;;;;;;6.55;6.05;;;24.50;24.60;;;;;;4990744;28;20484;-77
2021/09/14 11:26:12;;;;;;;7.93;6.20;;;24.60;24.80;;;;;;4995259;28;20405;-76
2021/09/14 11:28:39;;;;;;;8.70;5.95;;;24.70;23.90;;;;;;4974420;28;20411;-77
2021/09/14 11:31:11;;;;;;;7.70;5.90;;;25.00;23.60;;;;;;4974325;28;20410;-75
2021/09/14 11:33:41;;;;;;;6.78;6.13;;;25.00;23.50;;;;;;4991223;28;20409;-76
2021/09/14 11:36:08;;;;;;;7.00;6.40;;;25.00;23.40;;;;;;4992540;28;20430;-77
2021/09/14 11:38:34;;;;;;;6.90;5.60;;;25.10;22.10;;;;;;4994736;28;20403;-75
2021/09/14 11:41:01;;;;;;;5.75;5.10;;;25.10;22.50;;;;;;5005820;28;20454;-75
2021/09/14 11:43:29;;;;;;;6.10;5.50;;;25.40;22.00;;;;;;4996819;28;20398;-75
2021/09/14 11:45:56;;;;;;;9.25;5.82;;;25.60;22.90;;;;;;4977422;28;20974;-77
2021/09/14 11:48:23;;;;;;;6.00;5.35;;;26.00;21.90;;;;;;4975714;28;20475;-76
2021/09/14 11:51:10;;;;;;;6.10;5.20;;;26.30;20.70;;;;;;4988284;28;20815;-76
2021/09/14 11:53:38;;;;;;;6.47;5.70;;;26.50;19.70;;;;;;4993638;28;20394;-77
2021/09/14 11:56:14;;;;;;;8.05;5.00;;;26.90;18.90;;;;;;4977502;28;20427;-76
2021/09/14 11:58:45;;;;;;;7.45;5.30;;;27.00;18.30;;;;;;4973855;28;20403;-74
2021/09/14 12:01:12;;;;;;;5.38;4.88;;;27.10;18.00;;;;;;4997984;28;20403;-76
2021/09/14 12:03:44;;;;;;;5.40;4.90;;;27.10;18.00;;;;;;5008485;28;20463;-75
2021/09/14 12:06:12;;;;;;;6.20;5.18;;;27.10;17.80;;;;;;5012565;28;20747;-76
2021/09/14 12:08:40;;;;;;;9.77;5.50;;;27.10;17.80;;;;;;5012739;28;20381;-76
2021/09/14 12:11:06;;;;;;;6.53;5.03;;;27.10;18.60;;;;;;5013259;28;20496;-75
2021/09/14 12:13:39;;;;;;;5.27;4.77;;;27.20;17.60;;;;;;5013979;28;20910;-76
2021/09/14 12:16:09;;;;;;;6.57;5.28;;;27.10;17.50;;;;;;5013503;28;20439;-76
2021/09/14 12:18:35;;;;;;;6.30;5.22;;;27.10;18.20;;;;;;4996172;28;20405;-77
2021/09/14 12:21:00;;;;;;;5.80;4.80;;;26.90;18.20;;;;;;4991198;28;20391;-75
2021/09/14 12:23:26;;;;;;;6.43;5.50;;;27.00;18.00;;;;;;4992941;28;20462;-75
2021/09/14 12:25:51;;;;;;;6.70;5.07;;;27.00;18.50;;;;;;4992878;28;20425;-76
2021/09/14 12:28:17;;;;;;;5.70;4.80;;;27.00;18.50;;;;;;4995234;28;20934;-77
2021/09/14 12:30:42;;;;;;;6.30;5.40;;;27.10;18.20;;;;;;4992473;28;20414;-75
2021/09/14 12:33:08;;;;;;;7.00;5.15;;;27.20;18.40;;;;;;4993825;28;20466;-74
2021/09/14 12:35:34;;;;;;;5.50;4.87;;;27.50;18.00;;;;;;4994641;28;20387;-77
2021/09/14 12:38:00;;;;;;;10.17;5.70;;;27.50;17.30;;;;;;4993696;28;20422;-76
2021/09/14 12:40:25;;;;;;;5.00;4.60;;;27.40;17.10;;;;;;4994228;28;20460;-76
2021/09/14 12:42:51;;;;;;;5.90;5.30;;;27.60;17.00;;;;;;4998914;28;20392;-77
2021/09/14 12:45:16;;;;;;;5.50;5.00;;;27.50;17.80;;;;;;5015832;28;20411;-76
2021/09/14 12:47:42;;;;;;;7.10;5.40;;;27.80;16.80;;;;;;5013248;28;20523;-76
2021/09/14 12:50:08;;;;;;;7.10;4.90;;;27.80;16.10;;;;;;5014319;28;20436;-77
2021/09/14 12:52:34;;;;;;;8.52;4.97;;;27.70;16.40;;;;;;5012975;28;20930;-75
2021/09/14 12:55:00;;;;;;;6.23;4.80;;;27.60;17.00;;;;;;5010990;28;20433;-76
2021/09/14 12:57:25;;;;;;;5.50;5.00;;;27.70;16.80;;;;;;5013021;28;20404;-76
2021/09/14 12:59:51;;;;;;;5.63;5.10;;;27.70;17.00;;;;;;5011749;28;20391;-75
2021/09/14 13:02:16;;;;;;;5.40;4.90;;;27.40;17.20;;;;;;5011426;28;20468;-76
2021/09/14 13:04:42;;;;;;;4.70;4.30;;;27.50;16.90;;;;;;5009815;28;20399;-76
2021/09/14 13:07:08;;;;;;;10.40;5.35;;;27.30;17.10;;;;;;5011592;28;20393;-76
2021/09/14 13:09:33;;;;;;;8.50;5.00;;;27.20;17.50;;;;;;5012047;28;20388;-74
2021/09/14 13:11:59;;;;;;;8.20;4.80;;;27.20;17.60;;;;;;5011938;28;20389;-76
2021/09/14 13:17:10;;;;;;;5.32;4.82;;;27.30;17.50;;;;;;5007097;28;20437;-75
2021/09/14 13:19:36;;;;;;;5.00;4.60;;;27.40;17.10;;;;;;4991963;28;20879;-76
2021/09/14 13:22:01;;;;;;;5.63;4.80;;;27.50;16.70;;;;;;4991870;28;20386;-76
2021/09/14 13:24:27;;;;;;;4.70;4.20;;;27.70;16.90;;;;;;4991948;28;20712;-77
2021/09/14 13:26:53;;;;;;;7.30;4.60;;;28.00;15.80;;;;;;4991229;28;20405;-76
2021/09/14 13:29:19;;;;;;;5.22;4.72;;;28.10;16.00;;;;;;4991196;28;20887;-75
2021/09/14 13:31:46;;;;;;;6.80;4.43;;;28.40;15.00;;;;;;4989927;28;20415;-76